createdAt,value
2024-01-05T00:00:51.901Z,94.74
2024-01-05T00:03:19.058Z,95.01
2024-01-05T00:05:32.338Z,94.95
2024-01-05T00:07:46.340Z,95.25
2024-01-05T00:09:59.435Z,95.47
2024-01-05T00:12:13.394Z,95.61
2024-01-05T00:14:26.524Z,95.30
2024-01-05T00:16:39.881Z,95.29
2024-01-05T00:18:53.819Z,95.35
2024-01-05T00:21:07.146Z,95.31
2024-01-05T00:23:20.417Z,95.46
2024-01-05T00:25:33.517Z,95.53
2024-01-05T00:27:46.504Z,95.67
2024-01-05T00:29:59.492Z,95.83
2024-01-05T00:32:14.952Z,96.07
2024-01-05T00:34:29.312Z,96.00
2024-01-05T00:36:43.969Z,96.07
2024-01-05T00:38:57.393Z,96.34
2024-01-05T00:41:10.805Z,96.54
2024-01-05T00:43:23.921Z,96.42
2024-01-05T00:45:36.948Z,96.15
2024-01-05T00:47:50.290Z,96.21
2024-01-05T00:50:03.426Z,96.23
2024-01-05T00:52:17.121Z,96.32
2024-01-05T00:54:30.447Z,96.34
2024-01-05T00:56:44.090Z,96.38
2024-01-05T00:58:57.465Z,96.63
2024-01-05T01:01:13.168Z,96.83
2024-01-05T01:03:26.176Z,97.05
2024-01-05T01:05:39.561Z,96.88
2024-01-05T01:07:52.695Z,96.96
2024-01-05T01:10:05.635Z,97.27
2024-01-05T01:12:19.348Z,97.30
2024-01-05T01:14:32.508Z,97.28
2024-01-05T01:16:45.416Z,97.33
2024-01-05T01:18:58.561Z,97.26
2024-01-05T01:21:12.039Z,97.41
2024-01-05T01:23:25.354Z,97.28
2024-01-05T01:25:38.793Z,97.24
2024-01-05T01:27:52.538Z,97.58
2024-01-05T01:30:05.634Z,97.66
2024-01-05T01:32:18.941Z,97.77
2024-01-05T01:34:32.051Z,97.97
2024-01-05T01:36:45.330Z,97.69
2024-01-05T01:38:58.941Z,97.83
2024-01-05T01:41:12.071Z,97.98
2024-01-05T01:43:30.382Z,98.13
2024-01-05T01:45:43.475Z,98.18
2024-01-05T01:47:57.918Z,98.05
2024-01-05T01:50:12.564Z,97.93
2024-01-05T01:52:25.906Z,97.94
2024-01-05T01:54:40.268Z,97.75
2024-01-05T01:56:55.094Z,97.61
2024-01-05T01:59:09.764Z,98.00
2024-01-05T02:01:23.089Z,97.93
2024-01-05T02:03:36.486Z,98.24
2024-01-05T02:05:50.938Z,97.95
2024-01-05T02:08:05.281Z,97.78
2024-01-05T02:10:18.557Z,97.96
2024-01-05T02:12:31.902Z,98.20
2024-01-05T02:14:45.978Z,98.33
2024-01-05T02:16:59.067Z,98.06
2024-01-05T02:19:12.385Z,98.10
2024-01-05T02:21:35.394Z,98.32
2024-01-05T02:23:48.301Z,98.23
2024-01-05T02:26:03.000Z,98.16
2024-01-05T02:28:16.470Z,97.99
2024-01-05T02:30:29.401Z,98.00
2024-01-05T02:32:42.569Z,97.78
2024-01-05T02:34:55.544Z,97.67
2024-01-05T02:37:08.515Z,97.66
2024-01-05T02:39:21.590Z,97.78
2024-01-05T02:41:37.404Z,97.91
2024-01-05T02:43:51.316Z,97.84
2024-01-05T02:46:04.207Z,97.70
2024-01-05T02:48:18.122Z,97.74
2024-01-05T02:50:31.081Z,97.78
2024-01-05T02:52:44.962Z,97.96
2024-01-05T02:54:58.056Z,97.93
2024-01-05T02:57:11.515Z,98.02
2024-01-05T02:59:24.948Z,97.94
2024-01-05T03:01:38.299Z,98.13
2024-01-05T03:03:52.599Z,98.43
2024-01-05T03:06:05.664Z,98.53
2024-01-05T03:08:19.083Z,98.60
2024-01-05T03:10:32.105Z,98.85
2024-01-05T03:12:45.302Z,99.00
2024-01-05T03:14:58.355Z,99.08
2024-01-05T03:17:11.972Z,99.23
2024-01-05T03:19:25.229Z,99.33
2024-01-05T03:21:38.704Z,99.38
2024-01-05T03:23:52.442Z,99.37
2024-01-05T03:26:05.368Z,99.27
2024-01-05T03:28:18.832Z,99.31
2024-01-05T03:30:32.263Z,99.34
2024-01-05T03:32:46.281Z,99.48
2024-01-05T03:34:59.319Z,99.58
2024-01-05T03:37:12.401Z,99.12
2024-01-05T03:39:25.456Z,99.23
2024-01-05T03:41:39.628Z,99.65
2024-01-05T03:43:53.260Z,99.44
2024-01-05T03:46:06.444Z,99.64
2024-01-05T03:48:19.714Z,99.50
2024-01-05T03:50:32.857Z,99.17
2024-01-05T03:52:46.040Z,99.17
2024-01-05T03:54:59.155Z,98.84
2024-01-05T03:57:12.399Z,98.55
2024-01-05T03:59:25.482Z,98.59
2024-01-05T04:01:46.077Z,98.47
2024-01-05T04:04:00.085Z,98.32
2024-01-05T04:06:22.117Z,98.26
2024-01-05T04:08:35.368Z,98.20
2024-01-05T04:10:48.804Z,98.16
2024-01-05T04:13:03.074Z,98.04
2024-01-05T04:15:16.642Z,98.11
2024-01-05T04:17:29.663Z,97.99
2024-01-05T04:19:42.698Z,97.90
2024-01-05T04:21:56.238Z,97.79
2024-01-05T04:24:09.938Z,98.19
2024-01-05T04:26:23.075Z,98.43
2024-01-05T04:28:36.340Z,98.77
2024-01-05T04:30:49.535Z,99.22
2024-01-05T04:33:03.587Z,99.49
2024-01-05T04:35:17.129Z,99.51
2024-01-05T04:37:30.346Z,99.79
2024-01-05T04:39:46.044Z,99.77
2024-01-05T04:41:59.030Z,99.87
2024-01-05T04:44:12.631Z,99.92
2024-01-05T04:46:25.979Z,99.74
2024-01-05T04:48:40.009Z,99.69
2024-01-05T04:50:53.809Z,99.47
2024-01-05T04:53:07.158Z,99.38
2024-01-05T04:55:20.553Z,99.71
2024-01-05T04:57:34.129Z,100.00
2024-01-05T04:59:48.650Z,99.96
2024-01-05T05:02:02.750Z,100.00
2024-01-05T05:04:16.971Z,100.00
2024-01-05T05:06:30.275Z,100.00
2024-01-05T05:08:43.676Z,100.00
2024-01-05T05:10:56.730Z,100.00
2024-01-05T05:13:09.982Z,100.00
2024-01-05T05:15:23.269Z,100.00
2024-01-05T05:17:36.322Z,100.00
2024-01-05T05:19:50.725Z,99.99
2024-01-05T05:22:04.237Z,99.93
2024-01-05T05:24:17.284Z,99.83
2024-01-05T05:26:30.662Z,99.99
2024-01-05T05:28:43.816Z,100.00
2024-01-05T05:30:56.933Z,100.00
2024-01-05T05:33:10.676Z,99.97
2024-01-05T05:35:24.095Z,99.94
2024-01-05T05:37:37.033Z,99.92
2024-01-05T05:39:51.292Z,99.99
2024-01-05T05:42:26.098Z,100.00
2024-01-05T05:44:59.881Z,100.00
2024-01-05T05:48:25.621Z,100.00
2024-01-05T05:50:29.264Z,100.00
2024-01-05T05:53:06.156Z,100.00
2024-01-05T05:55:41.889Z,100.00
2024-01-05T05:58:29.357Z,100.00
2024-01-05T06:01:03.544Z,100.00
2024-01-05T06:03:38.622Z,100.00
2024-01-05T06:06:24.963Z,100.00
2024-01-05T06:08:53.836Z,100.00
2024-01-05T06:11:29.132Z,100.00
2024-01-05T06:13:56.072Z,100.00
2024-01-05T06:16:32.793Z,100.00
2024-01-05T06:19:06.560Z,100.00
2024-01-05T06:21:40.891Z,100.00
2024-01-05T06:24:16.030Z,100.00
2024-01-05T06:26:43.865Z,100.00
2024-01-05T06:29:06.742Z,100.00
2024-01-05T06:31:41.724Z,100.00
2024-01-05T06:34:17.101Z,100.00
2024-01-05T06:36:52.304Z,100.00
2024-01-05T06:39:29.086Z,100.00
2024-01-05T06:42:05.099Z,100.00
2024-01-05T06:44:34.470Z,100.00
2024-01-05T06:47:09.679Z,100.00
2024-01-05T06:49:44.402Z,100.00
2024-01-05T06:52:19.140Z,100.00
2024-01-05T06:54:48.264Z,100.00
2024-01-05T06:57:23.530Z,100.00
2024-01-05T06:59:51.169Z,100.00
2024-01-05T07:02:26.081Z,100.00
2024-01-05T07:05:00.540Z,100.00
2024-01-05T07:07:42.044Z,100.00
2024-01-05T07:10:17.126Z,100.00
2024-01-05T07:12:52.137Z,100.00
2024-01-05T07:15:20.711Z,100.00
2024-01-05T07:17:56.088Z,100.00
2024-01-05T07:20:59.920Z,100.00
2024-01-05T07:23:15.839Z,100.00
2024-01-05T07:25:50.630Z,100.00
2024-01-05T07:28:25.836Z,100.00
2024-01-05T07:31:00.201Z,100.00
2024-01-05T07:33:34.511Z,100.00
2024-01-05T07:36:12.227Z,100.00
2024-01-05T07:38:47.001Z,100.00
2024-01-05T07:41:25.855Z,100.00
2024-01-05T07:44:00.983Z,100.00
2024-01-05T07:46:35.641Z,100.00
2024-01-05T07:49:00.002Z,100.00
2024-01-05T07:51:34.296Z,100.00
2024-01-05T07:54:02.170Z,100.00
2024-01-05T07:56:40.418Z,100.00
2024-01-05T07:59:13.459Z,100.00
2024-01-05T08:01:34.529Z,100.00
2024-01-05T08:03:57.227Z,100.00
2024-01-05T08:06:15.033Z,100.00
2024-01-05T08:08:32.468Z,100.00
2024-01-05T08:10:48.879Z,100.00
2024-01-05T08:13:28.322Z,100.00
2024-01-05T08:16:03.506Z,100.00
2024-01-05T08:18:29.120Z,100.00
2024-01-05T08:21:04.849Z,100.00
2024-01-05T08:23:33.328Z,100.00
2024-01-05T08:26:07.967Z,99.87
2024-01-05T08:28:42.220Z,100.00
2024-01-05T08:31:10.610Z,100.00
2024-01-05T08:33:46.022Z,100.00
2024-01-05T08:36:20.315Z,100.00
2024-01-05T08:38:55.362Z,100.00
2024-01-05T08:41:17.946Z,100.00
2024-01-05T08:43:54.223Z,100.00
2024-01-05T08:46:16.946Z,100.00
2024-01-05T08:48:41.298Z,100.00
2024-01-05T08:50:57.918Z,100.00
2024-01-05T08:53:32.457Z,100.00
2024-01-05T08:56:05.036Z,100.00
2024-01-05T08:58:32.878Z,100.00
2024-01-05T09:01:03.753Z,99.88
2024-01-05T09:03:39.802Z,98.84
2024-01-05T09:06:17.040Z,99.16
2024-01-05T09:08:44.643Z,99.06
2024-01-05T09:11:10.093Z,98.52
2024-01-05T09:13:44.114Z,98.32
2024-01-05T09:16:06.477Z,97.83
2024-01-05T09:18:36.403Z,96.75
2024-01-05T09:21:02.325Z,96.18
2024-01-05T09:23:20.314Z,96.12
2024-01-05T09:25:41.341Z,95.57
2024-01-05T09:28:17.831Z,95.56
2024-01-05T09:30:34.745Z,95.47
2024-01-05T09:33:06.614Z,95.22
2024-01-05T09:35:42.099Z,94.72
2024-01-05T09:38:19.583Z,94.38
2024-01-05T09:40:55.971Z,94.29
2024-01-05T09:43:32.224Z,94.31
2024-01-05T09:46:06.624Z,94.02
2024-01-05T09:48:39.969Z,93.14
2024-01-05T09:51:23.783Z,92.84
2024-01-05T09:53:58.628Z,92.80
2024-01-05T09:56:26.446Z,92.71
2024-01-05T09:59:00.536Z,91.67
2024-01-05T10:01:41.698Z,91.60
2024-01-05T10:04:11.588Z,91.24
2024-01-05T10:06:39.200Z,91.67
2024-01-05T10:08:59.075Z,90.98
2024-01-05T10:11:37.681Z,91.06
2024-01-05T10:14:15.567Z,90.39
2024-01-05T10:16:50.140Z,90.84
2024-01-05T10:19:24.835Z,90.97
2024-01-05T10:21:58.163Z,90.34
2024-01-05T10:24:32.591Z,90.66
2024-01-05T10:27:04.668Z,90.83
2024-01-05T10:29:27.776Z,91.00
2024-01-05T10:31:43.164Z,90.83
2024-01-05T10:34:18.351Z,91.10
2024-01-05T10:36:41.414Z,91.59
2024-01-05T10:39:16.874Z,92.19
2024-01-05T10:41:51.490Z,91.80
2024-01-05T10:44:29.513Z,92.33
2024-01-05T10:46:47.843Z,93.48
2024-01-05T10:49:01.878Z,93.81
2024-01-05T10:51:21.432Z,94.22
2024-01-05T10:53:38.649Z,94.91
2024-01-05T10:55:53.890Z,95.63
2024-01-05T10:58:27.875Z,96.58
2024-01-05T11:00:42.748Z,97.37
2024-01-05T11:03:00.083Z,98.27
2024-01-05T11:05:36.335Z,97.91
2024-01-05T11:07:52.856Z,97.42
2024-01-05T11:10:26.176Z,97.71
2024-01-05T11:13:13.872Z,98.76
2024-01-05T11:15:48.049Z,99.38
2024-01-05T11:18:52.432Z,99.95
2024-01-05T11:21:40.685Z,99.67
2024-01-05T11:24:20.060Z,99.26
2024-01-05T11:26:41.480Z,99.35
2024-01-05T11:28:56.243Z,99.28
2024-01-05T11:31:14.259Z,99.02
2024-01-05T11:33:55.260Z,98.94
2024-01-05T11:36:12.441Z,98.86
2024-01-05T11:38:38.691Z,98.50
2024-01-05T11:41:23.457Z,98.67
2024-01-05T11:43:48.186Z,98.89
2024-01-05T11:46:06.045Z,99.20
2024-01-05T11:48:56.213Z,99.26
2024-01-05T11:51:29.702Z,99.81
2024-01-05T11:53:48.271Z,99.96
2024-01-05T11:56:05.634Z,99.99
2024-01-05T11:58:30.833Z,100.00
2024-01-05T12:00:47.604Z,100.00
2024-01-05T12:03:11.155Z,100.00
2024-01-05T12:05:26.133Z,100.00
2024-01-05T12:07:49.200Z,100.00
2024-01-05T12:10:02.741Z,100.00
2024-01-05T12:12:28.413Z,100.00
2024-01-05T12:14:50.800Z,100.00
2024-01-05T12:17:20.506Z,100.00
2024-01-05T12:19:38.344Z,100.00
2024-01-05T12:21:58.396Z,100.00
2024-01-05T12:24:33.121Z,100.00
2024-01-05T12:27:07.604Z,100.00
2024-01-05T12:29:45.178Z,100.00
2024-01-05T12:32:21.477Z,100.00
2024-01-05T12:34:54.859Z,100.00
2024-01-05T12:37:30.130Z,100.00
2024-01-05T12:39:53.853Z,100.00
2024-01-05T12:42:12.300Z,100.00
2024-01-05T12:44:26.780Z,100.00
2024-01-05T12:46:53.070Z,100.00
2024-01-05T12:49:25.358Z,100.00
2024-01-05T12:51:39.441Z,100.00
2024-01-05T12:54:01.598Z,100.00
2024-01-05T12:56:16.584Z,100.00
2024-01-05T12:58:35.879Z,100.00
2024-01-05T13:01:10.034Z,100.00
2024-01-05T13:03:24.227Z,100.00
2024-01-05T13:05:41.719Z,100.00
2024-01-05T13:08:06.869Z,100.00
2024-01-05T13:10:41.169Z,100.00
2024-01-05T13:13:14.911Z,100.00
2024-01-05T13:15:49.613Z,100.00
2024-01-05T13:18:12.691Z,100.00
2024-01-05T13:20:36.473Z,100.00
2024-01-05T13:23:11.997Z,100.00
2024-01-05T13:25:45.934Z,100.00
2024-01-05T13:28:20.396Z,100.00
2024-01-05T13:30:54.814Z,100.00
2024-01-05T13:33:19.843Z,100.00
2024-01-05T13:35:55.289Z,100.00
2024-01-05T13:38:29.350Z,100.00
2024-01-05T13:41:03.762Z,100.00
2024-01-05T13:43:38.881Z,100.00
2024-01-05T13:46:12.947Z,100.00
2024-01-05T13:48:47.837Z,100.00
2024-01-05T13:51:22.128Z,100.00
2024-01-05T13:53:47.963Z,100.00
2024-01-05T13:56:22.522Z,100.00
2024-01-05T13:58:45.374Z,100.00
2024-01-05T14:01:20.163Z,100.00
2024-01-05T14:03:53.904Z,100.00
2024-01-05T14:06:26.997Z,99.89
2024-01-05T14:09:01.877Z,99.55
2024-01-05T14:11:21.714Z,99.45
2024-01-05T14:13:54.241Z,99.82
2024-01-05T14:16:19.861Z,100.00
2024-01-05T14:18:54.371Z,100.00
2024-01-05T14:21:25.035Z,100.00
2024-01-05T14:23:57.960Z,100.00
2024-01-05T14:26:22.095Z,100.00
2024-01-05T14:28:56.393Z,100.00
2024-01-05T14:31:33.129Z,100.00
2024-01-05T14:34:00.134Z,100.00
2024-01-05T14:36:34.059Z,100.00
2024-01-05T14:39:08.095Z,100.00
2024-01-05T14:41:41.813Z,100.00
2024-01-05T14:44:16.305Z,100.00
2024-01-05T14:46:40.011Z,100.00
2024-01-05T14:49:14.162Z,100.00
2024-01-05T14:51:51.395Z,100.00
2024-01-05T14:54:08.682Z,100.00
2024-01-05T14:56:42.469Z,99.95
2024-01-05T14:59:16.555Z,99.15
2024-01-05T15:01:29.789Z,99.70
2024-01-05T15:03:53.649Z,99.02
2024-01-05T15:06:18.892Z,99.39
2024-01-05T15:08:41.874Z,99.06
2024-01-05T15:11:24.467Z,98.49
2024-01-05T15:13:59.226Z,98.03
2024-01-05T15:16:23.953Z,97.86
2024-01-05T15:18:41.203Z,97.98
2024-01-05T15:21:15.954Z,98.08
2024-01-05T15:23:51.016Z,98.36
2024-01-05T15:26:16.421Z,98.72
2024-01-05T15:28:43.545Z,99.29
2024-01-05T15:31:10.857Z,98.93
2024-01-05T15:33:44.425Z,98.76
2024-01-05T15:36:07.949Z,98.56
2024-01-05T15:38:41.161Z,98.62
2024-01-05T15:40:57.510Z,98.57
2024-01-05T15:43:31.626Z,98.87
2024-01-05T15:46:06.688Z,98.95
2024-01-05T15:48:41.408Z,98.94
2024-01-05T15:51:16.439Z,99.18
2024-01-05T15:53:52.417Z,99.29
2024-01-05T15:56:26.609Z,99.66
2024-01-05T15:58:59.977Z,99.44
2024-01-05T16:01:34.276Z,99.39
2024-01-05T16:04:09.256Z,99.78
2024-01-05T16:06:43.439Z,99.97
2024-01-05T16:09:18.626Z,99.99
2024-01-05T16:11:53.183Z,100.00
2024-01-05T16:14:26.682Z,100.00
2024-01-05T16:16:54.632Z,100.00
2024-01-05T16:19:28.583Z,100.00
2024-01-05T16:22:02.115Z,100.00
2024-01-05T16:24:30.269Z,100.00
2024-01-05T16:27:04.720Z,100.00
2024-01-05T16:29:37.942Z,100.00
2024-01-05T16:31:55.837Z,100.00
2024-01-05T16:34:21.687Z,100.00
2024-01-05T16:36:56.249Z,100.00
2024-01-05T16:39:30.801Z,100.00
2024-01-05T16:42:05.695Z,100.00
2024-01-05T16:44:39.616Z,100.00
2024-01-05T16:46:59.308Z,100.00
2024-01-05T16:49:16.497Z,100.00
2024-01-05T16:51:50.359Z,100.00
2024-01-05T16:54:07.063Z,100.00
2024-01-05T16:56:31.399Z,100.00
2024-01-05T16:58:48.182Z,100.00
2024-01-05T17:01:22.706Z,100.00
2024-01-05T17:03:59.296Z,100.00
2024-01-05T17:06:19.992Z,100.00
2024-01-05T17:08:43.996Z,100.00
2024-01-05T17:11:19.215Z,100.00
2024-01-05T17:13:37.192Z,100.00
2024-01-05T17:15:53.351Z,100.00
2024-01-05T17:18:21.550Z,100.00
2024-01-05T17:20:58.221Z,100.00
2024-01-05T17:23:32.664Z,100.00
2024-01-05T17:26:06.555Z,100.00
2024-01-05T17:28:41.432Z,100.00
2024-01-05T17:31:15.882Z,100.00
2024-01-05T17:33:43.757Z,100.00
2024-01-05T17:36:11.942Z,100.00
2024-01-05T17:38:45.662Z,100.00
2024-01-05T17:41:00.831Z,100.00
2024-01-05T17:43:34.744Z,100.00
2024-01-05T17:45:48.453Z,100.00
2024-01-05T17:48:26.823Z,100.00
2024-01-05T17:50:40.109Z,100.00
2024-01-05T17:53:05.630Z,100.00
2024-01-05T17:55:23.243Z,100.00
2024-01-05T17:57:57.637Z,100.00
2024-01-05T18:00:31.272Z,100.00
2024-01-05T18:03:05.746Z,99.81
2024-01-05T18:05:30.698Z,98.24
2024-01-05T18:08:05.294Z,97.80
2024-01-05T18:10:39.600Z,96.46
2024-01-05T18:12:57.577Z,94.93
2024-01-05T18:15:31.866Z,94.52
2024-01-05T18:17:54.454Z,95.25
2024-01-05T18:20:22.163Z,95.70
2024-01-05T18:22:46.221Z,95.97
2024-01-05T18:25:20.134Z,96.34
2024-01-05T18:27:54.785Z,96.81
2024-01-05T18:30:29.132Z,97.10
2024-01-05T18:32:53.944Z,97.16
2024-01-05T18:35:08.803Z,97.42
2024-01-05T18:37:33.827Z,97.44
2024-01-05T18:39:47.416Z,97.43
2024-01-05T18:42:01.212Z,97.28
2024-01-05T18:44:15.983Z,97.49
2024-01-05T18:46:29.832Z,97.80
2024-01-05T18:48:44.667Z,98.26
2024-01-05T18:50:57.792Z,98.74
2024-01-05T18:53:11.469Z,99.32
2024-01-05T18:55:24.990Z,99.63
2024-01-05T18:57:38.149Z,99.73
2024-01-05T18:59:51.368Z,99.99
2024-01-05T19:02:06.392Z,100.00
2024-01-05T19:04:21.575Z,100.00
2024-01-05T19:06:35.258Z,100.00
2024-01-05T19:08:48.630Z,99.98
2024-01-05T19:11:02.715Z,99.23
2024-01-05T19:13:17.320Z,98.90
2024-01-05T19:15:30.262Z,98.14
2024-01-05T19:17:45.416Z,98.37
2024-01-05T19:19:59.035Z,97.91
2024-01-05T19:22:12.865Z,97.45
2024-01-05T19:24:26.471Z,96.59
2024-01-05T19:26:41.479Z,96.21
2024-01-05T19:28:54.565Z,96.18
2024-01-05T19:31:09.013Z,96.66
2024-01-05T19:33:22.746Z,96.01
2024-01-05T19:35:36.764Z,94.91
2024-01-05T19:37:50.437Z,95.30
2024-01-05T19:40:03.736Z,94.89
2024-01-05T19:42:20.390Z,94.94
2024-01-05T19:44:34.443Z,94.91
2024-01-05T19:46:47.368Z,95.11
2024-01-05T19:49:00.708Z,94.43
2024-01-05T19:51:15.162Z,94.09
2024-01-05T19:53:28.043Z,93.38
2024-01-05T19:55:42.109Z,93.25
2024-01-05T19:57:55.291Z,92.96
2024-01-05T20:00:09.686Z,92.83
2024-01-05T20:02:22.960Z,92.52
2024-01-05T20:04:36.313Z,92.49
2024-01-05T20:06:50.517Z,92.29
2024-01-05T20:09:03.598Z,92.48
2024-01-05T20:11:19.139Z,92.83
2024-01-05T20:13:32.870Z,92.81
2024-01-05T20:15:46.495Z,92.45
2024-01-05T20:18:01.225Z,92.63
2024-01-05T20:20:15.750Z,93.11
2024-01-05T20:22:29.006Z,92.72
2024-01-05T20:24:42.078Z,92.33
2024-01-05T20:26:56.803Z,92.54
2024-01-05T20:29:10.186Z,92.16
2024-01-05T20:31:23.817Z,91.09
2024-01-05T20:33:37.499Z,90.39
2024-01-05T20:35:50.819Z,90.61
2024-01-05T20:38:05.413Z,90.53
2024-01-05T20:40:20.376Z,90.76
2024-01-05T20:42:33.341Z,91.47
2024-01-05T20:44:46.913Z,91.35
2024-01-05T20:47:03.512Z,89.97
2024-01-05T20:49:16.798Z,89.46
2024-01-05T20:51:30.284Z,89.38
2024-01-05T20:53:43.387Z,89.04
2024-01-05T20:55:57.624Z,89.20
2024-01-05T20:58:10.905Z,89.53
2024-01-05T21:00:25.030Z,89.50
2024-01-05T21:02:38.134Z,88.86
2024-01-05T21:04:52.757Z,88.02
2024-01-05T21:07:07.133Z,87.04
2024-01-05T21:09:22.047Z,87.20
2024-01-05T21:11:36.127Z,87.62
2024-01-05T21:13:49.278Z,87.88
2024-01-05T21:16:03.679Z,88.33
2024-01-05T21:18:17.564Z,88.10
2024-01-05T21:20:30.926Z,88.42
2024-01-05T21:22:44.294Z,88.48
2024-01-05T21:24:57.513Z,89.07
2024-01-05T21:27:11.946Z,89.23
2024-01-05T21:29:25.263Z,88.28
2024-01-05T21:31:38.470Z,88.05
2024-01-05T21:33:52.032Z,88.17
2024-01-05T21:36:05.483Z,88.27
2024-01-05T21:38:18.925Z,88.76
2024-01-05T21:40:32.814Z,88.88
2024-01-05T21:42:46.162Z,88.68
2024-01-05T21:44:59.334Z,88.23
2024-01-05T21:47:13.137Z,89.00
2024-01-05T21:49:27.275Z,89.71
2024-01-05T21:51:40.736Z,89.82
2024-01-05T21:53:54.358Z,89.87
2024-01-05T21:56:07.746Z,89.71
2024-01-05T21:58:20.899Z,89.86
2024-01-05T22:00:34.460Z,89.97
2024-01-05T22:02:48.698Z,88.99
2024-01-05T22:05:02.930Z,88.23
2024-01-05T22:07:17.008Z,88.12
2024-01-05T22:09:31.195Z,88.07
2024-01-05T22:11:49.020Z,87.85
2024-01-05T22:14:01.972Z,87.89
2024-01-05T22:16:19.663Z,87.59
2024-01-05T22:18:39.970Z,87.61
2024-01-05T22:20:52.867Z,87.85
2024-01-05T22:23:06.885Z,88.46
2024-01-05T22:25:20.009Z,88.65
2024-01-05T22:27:33.529Z,88.23
2024-01-05T22:29:46.952Z,88.18
2024-01-05T22:32:00.569Z,88.51
2024-01-05T22:34:14.390Z,89.16
2024-01-05T22:36:27.680Z,89.44
2024-01-05T22:38:40.799Z,88.85
2024-01-05T22:40:54.159Z,88.82
2024-01-05T22:43:08.371Z,89.05
2024-01-05T22:45:21.798Z,88.53
2024-01-05T22:47:34.853Z,88.32
2024-01-05T22:49:47.976Z,87.20
2024-01-05T22:52:01.427Z,86.64
2024-01-05T22:54:15.173Z,87.56
2024-01-05T22:56:28.268Z,88.39
2024-01-05T22:58:41.624Z,88.92
2024-01-05T23:00:55.404Z,89.05
2024-01-05T23:03:13.308Z,89.07
2024-01-05T23:05:26.618Z,89.09
2024-01-05T23:07:39.728Z,89.21
2024-01-05T23:09:52.743Z,89.58
2024-01-05T23:12:05.908Z,89.81
2024-01-05T23:14:19.680Z,90.16
2024-01-05T23:16:32.938Z,90.68
2024-01-05T23:18:46.173Z,90.68
2024-01-05T23:20:59.547Z,90.81
2024-01-05T23:23:13.640Z,90.64
2024-01-05T23:25:26.859Z,90.70
2024-01-05T23:27:40.289Z,90.47
2024-01-05T23:29:53.633Z,90.36
2024-01-05T23:32:09.500Z,90.71
2024-01-05T23:34:22.588Z,90.70
2024-01-05T23:36:35.912Z,89.85
2024-01-05T23:38:50.679Z,89.30
2024-01-05T23:41:04.338Z,89.38
2024-01-05T23:43:17.322Z,89.31
2024-01-05T23:45:30.588Z,89.49
2024-01-05T23:47:44.731Z,89.90
2024-01-05T23:50:00.530Z,90.88
2024-01-05T23:52:16.454Z,91.05
2024-01-05T23:54:32.147Z,90.79
2024-01-05T23:56:46.343Z,90.51
2024-01-05T23:58:59.828Z,90.11
